createdAt,value
2022-11-20T00:00:26.527Z,0.00
2022-11-20T00:05:32.089Z,0.00
2022-11-20T00:10:20.241Z,0.00
2022-11-20T00:15:26.610Z,0.00
2022-11-20T00:20:32.410Z,0.00
2022-11-20T00:25:21.380Z,0.00
2022-11-20T00:30:29.496Z,0.00
2022-11-20T00:35:18.527Z,0.00
2022-11-20T00:40:24.669Z,0.00
2022-11-20T00:45:30.643Z,0.00
2022-11-20T00:50:19.736Z,0.00
2022-11-20T00:55:25.806Z,0.00
2022-11-20T01:00:31.832Z,0.00
2022-11-20T01:05:20.318Z,0.00
2022-11-20T01:10:26.816Z,0.00
2022-11-20T01:15:33.495Z,0.00
2022-11-20T01:20:22.006Z,0.00
2022-11-20T01:25:27.957Z,0.00
2022-11-20T01:30:16.991Z,0.00
2022-11-20T01:35:23.165Z,0.00
2022-11-20T01:40:29.131Z,0.00
2022-11-20T01:45:18.167Z,0.00
2022-11-20T01:50:24.291Z,0.00
2022-11-20T01:55:30.315Z,0.00
2022-11-20T02:00:19.474Z,0.00
2022-11-20T02:05:24.760Z,0.00
2022-11-20T02:10:30.131Z,0.00
2022-11-20T02:15:20.009Z,0.00
2022-11-20T02:20:25.327Z,0.00
2022-11-20T02:25:31.300Z,0.00
2022-11-20T02:30:20.460Z,0.00
2022-11-20T02:35:26.386Z,0.00
2022-11-20T02:40:32.575Z,0.00
2022-11-20T02:45:21.547Z,0.00
2022-11-20T02:50:27.544Z,0.00
2022-11-20T02:55:16.616Z,0.00
2022-11-20T03:00:22.854Z,0.00
2022-11-20T03:05:27.998Z,0.00
2022-11-20T03:10:17.819Z,0.00
2022-11-20T03:15:23.990Z,0.00
2022-11-20T03:20:30.029Z,0.00
2022-11-20T03:25:19.077Z,0.00
2022-11-20T03:30:30.367Z,0.00
2022-11-20T03:35:31.184Z,0.00
2022-11-20T03:40:20.395Z,0.00
2022-11-20T03:45:26.360Z,0.00
2022-11-20T03:50:33.424Z,0.00
2022-11-20T03:55:21.436Z,0.00
2022-11-20T04:00:27.534Z,0.00
2022-11-20T04:05:33.035Z,0.00
2022-11-20T04:10:21.091Z,0.00
2022-11-20T04:15:27.203Z,0.00
2022-11-20T04:20:16.426Z,0.00
2022-11-20T04:25:22.428Z,0.00
2022-11-20T04:30:28.445Z,0.00
2022-11-20T04:35:17.429Z,0.00
2022-11-20T04:40:23.573Z,0.00
2022-11-20T04:45:29.565Z,0.00
2022-11-20T04:50:18.608Z,0.00
2022-11-20T04:55:24.655Z,0.00
2022-11-20T05:00:30.857Z,0.00
2022-11-20T05:05:19.881Z,0.00
2022-11-20T05:10:25.492Z,0.00
2022-11-20T05:15:31.596Z,0.00
2022-11-20T05:20:20.735Z,0.00
2022-11-20T05:25:26.695Z,0.00
2022-11-20T05:30:32.710Z,0.00
2022-11-20T05:35:21.739Z,0.00
2022-11-20T05:40:27.863Z,0.00
2022-11-20T05:45:16.878Z,0.00
2022-11-20T05:50:22.970Z,0.00
2022-11-20T05:55:28.987Z,0.00
2022-11-20T06:00:18.402Z,0.00
2022-11-20T06:05:23.407Z,0.00
2022-11-20T06:10:29.968Z,0.00
2022-11-20T06:15:18.955Z,0.00
2022-11-20T06:20:24.996Z,0.00
2022-11-20T06:25:31.062Z,0.00
2022-11-20T06:30:20.102Z,0.00
2022-11-20T06:35:26.145Z,0.00
2022-11-20T06:40:32.350Z,0.02
2022-11-20T06:45:21.260Z,0.08
2022-11-20T06:50:27.296Z,0.11
2022-11-20T06:55:17.462Z,0.49
2022-11-20T07:00:22.760Z,1.13
2022-11-20T07:05:27.650Z,1.47
2022-11-20T07:10:16.701Z,2.21
2022-11-20T07:15:22.821Z,2.38
2022-11-20T07:20:29.116Z,2.54
2022-11-20T07:25:17.931Z,3.94
2022-11-20T07:30:23.968Z,5.68
2022-11-20T07:35:30.001Z,6.69
2022-11-20T07:40:19.239Z,7.18
2022-11-20T07:45:25.144Z,7.51
2022-11-20T07:50:31.126Z,14.23
2022-11-20T07:55:20.234Z,13.81
2022-11-20T08:00:26.784Z,14.96
2022-11-20T08:05:31.696Z,14.99
2022-11-20T08:10:20.511Z,11.96
2022-11-20T08:15:27.389Z,10.02
2022-11-20T08:20:32.647Z,9.99
2022-11-20T08:25:21.661Z,9.92
2022-11-20T08:30:27.640Z,9.27
2022-11-20T08:35:16.670Z,8.55
2022-11-20T08:40:22.936Z,10.17
2022-11-20T08:45:33.702Z,12.84
2022-11-20T08:50:17.973Z,17.14
2022-11-20T08:55:24.013Z,16.39
2022-11-20T09:00:30.077Z,17.75
2022-11-20T09:05:18.422Z,22.84
2022-11-20T09:10:25.073Z,19.54
2022-11-20T09:15:30.217Z,21.88
2022-11-20T09:20:19.365Z,19.84
2022-11-20T09:25:25.327Z,20.18
2022-11-20T09:30:31.366Z,27.23
2022-11-20T09:35:20.376Z,26.65
2022-11-20T09:40:26.543Z,25.73
2022-11-20T09:45:32.520Z,22.20
2022-11-20T09:50:21.657Z,22.54
2022-11-20T09:55:27.548Z,24.97
2022-11-20T10:00:16.866Z,26.77
2022-11-20T10:05:21.925Z,18.87
2022-11-20T10:10:28.814Z,14.14
2022-11-20T10:15:17.838Z,12.27
2022-11-20T10:20:23.888Z,15.03
2022-11-20T10:25:29.952Z,17.23
2022-11-20T10:30:18.974Z,18.07
2022-11-20T10:35:25.056Z,21.20
2022-11-20T10:40:31.145Z,19.15
2022-11-20T10:45:20.192Z,15.93
2022-11-20T10:50:26.183Z,18.91
2022-11-20T10:55:32.268Z,13.49
2022-11-20T11:00:21.317Z,14.69
2022-11-20T11:05:26.617Z,20.99
2022-11-20T11:10:32.982Z,36.07
2022-11-20T11:15:22.020Z,34.99
2022-11-20T11:20:28.120Z,38.85
2022-11-20T11:25:17.039Z,29.87
2022-11-20T11:30:23.085Z,29.29
2022-11-20T11:35:29.155Z,20.64
2022-11-20T11:40:25.661Z,20.55
2022-11-20T11:45:24.239Z,20.85
2022-11-20T11:50:30.322Z,25.26
2022-11-20T11:55:19.448Z,29.71
2022-11-20T12:00:25.594Z,23.99
2022-11-20T12:05:30.772Z,19.85
2022-11-20T12:10:19.575Z,22.33
2022-11-20T12:15:25.732Z,30.47
2022-11-20T12:20:31.706Z,37.93
2022-11-20T12:25:20.739Z,26.98
2022-11-20T12:30:27.783Z,39.53
2022-11-20T12:35:16.901Z,43.02
2022-11-20T12:40:23.063Z,54.26
2022-11-20T12:45:29.445Z,51.76
2022-11-20T12:50:17.966Z,95.24
2022-11-20T12:55:24.097Z,78.67
2022-11-20T13:00:30.210Z,65.32
2022-11-20T13:05:18.476Z,54.24
2022-11-20T13:10:34.050Z,43.85
2022-11-20T13:15:30.172Z,28.25
2022-11-20T13:20:19.470Z,25.39
2022-11-20T13:25:25.376Z,28.13
2022-11-20T13:30:31.334Z,20.36
2022-11-20T13:35:20.376Z,22.32
2022-11-20T13:40:26.472Z,24.00
2022-11-20T13:45:32.548Z,32.29
2022-11-20T13:50:21.613Z,35.80
2022-11-20T13:55:27.633Z,37.20
2022-11-20T14:00:16.953Z,24.51
2022-11-20T14:05:21.977Z,15.21
2022-11-20T14:10:32.004Z,9.80
2022-11-20T14:15:17.931Z,8.74
2022-11-20T14:20:24.046Z,7.59
2022-11-20T14:25:30.064Z,3.56
2022-11-20T14:30:19.004Z,2.82
2022-11-20T14:35:25.068Z,3.12
2022-11-20T14:40:31.232Z,2.78
2022-11-20T14:45:20.165Z,2.01
2022-11-20T14:50:26.298Z,1.92
2022-11-20T14:55:33.290Z,1.80
2022-11-20T15:00:21.507Z,0.95
2022-11-20T15:05:26.700Z,0.17
2022-11-20T15:10:32.430Z,0.11
2022-11-20T15:15:21.488Z,0.00
2022-11-20T15:20:27.655Z,0.00
2022-11-20T15:25:16.543Z,0.00
2022-11-20T15:30:22.670Z,0.00
2022-11-20T15:35:28.724Z,0.00
2022-11-20T15:40:18.007Z,0.00
2022-11-20T15:45:23.745Z,0.00
2022-11-20T15:50:29.843Z,0.00
2022-11-20T15:55:18.949Z,0.00
2022-11-20T16:00:25.381Z,0.00
2022-11-20T16:05:30.310Z,0.00
2022-11-20T16:10:18.954Z,0.00
2022-11-20T16:15:25.084Z,0.00
2022-11-20T16:20:31.293Z,0.00
2022-11-20T16:25:20.121Z,0.00
2022-11-20T16:30:26.214Z,0.00
2022-11-20T16:35:32.317Z,0.00
2022-11-20T16:40:21.488Z,0.00
2022-11-20T16:45:32.676Z,0.00
2022-11-20T16:50:16.475Z,0.00
2022-11-20T16:55:22.568Z,0.00
2022-11-20T17:00:28.639Z,0.00
2022-11-20T17:05:16.862Z,0.00
2022-11-20T17:10:23.668Z,0.00
2022-11-20T17:15:29.839Z,0.00
2022-11-20T17:20:19.307Z,0.00
2022-11-20T17:25:24.815Z,0.00
2022-11-20T17:30:30.883Z,0.00
2022-11-20T17:35:19.855Z,0.00
2022-11-20T17:40:27.723Z,0.00
2022-11-20T17:45:32.041Z,0.00
2022-11-20T17:50:21.021Z,0.00
2022-11-20T17:55:27.097Z,0.00
2022-11-20T18:00:33.243Z,0.00
2022-11-20T18:05:21.510Z,0.00
2022-11-20T18:10:27.365Z,0.00
2022-11-20T18:15:17.178Z,0.00
2022-11-20T18:20:33.116Z,0.00
2022-11-20T18:25:28.456Z,0.00
2022-11-20T18:30:17.457Z,0.00
2022-11-20T18:35:23.626Z,0.00
2022-11-20T18:40:29.677Z,0.00
2022-11-20T18:45:18.664Z,0.00
2022-11-20T18:50:24.735Z,0.00
2022-11-20T18:55:30.826Z,0.00
2022-11-20T19:00:20.273Z,0.00
2022-11-20T19:05:25.221Z,0.00
2022-11-20T19:10:30.876Z,0.00
2022-11-20T19:15:19.966Z,0.00
2022-11-20T19:20:26.040Z,0.00
2022-11-20T19:25:37.698Z,0.00
2022-11-20T19:30:21.109Z,0.00
2022-11-20T19:35:27.180Z,0.00
2022-11-20T19:40:16.316Z,0.00
2022-11-20T19:45:22.277Z,0.00
2022-11-20T19:50:28.375Z,0.00
2022-11-20T19:55:17.409Z,0.00
2022-11-20T20:00:29.508Z,0.00
2022-11-20T20:05:29.849Z,0.00
2022-11-20T20:10:18.749Z,0.00
2022-11-20T20:15:24.622Z,0.00
2022-11-20T20:20:30.735Z,0.00
2022-11-20T20:25:19.749Z,0.00
2022-11-20T20:30:25.872Z,0.00
2022-11-20T20:35:32.021Z,0.00
2022-11-20T20:40:21.344Z,0.00
2022-11-20T20:45:27.050Z,0.00
2022-11-20T20:50:33.376Z,0.00
2022-11-20T20:55:22.043Z,0.00
2022-11-20T21:00:28.137Z,0.00
2022-11-20T21:05:16.481Z,0.00
2022-11-20T21:10:23.838Z,0.00
2022-11-20T21:15:28.557Z,0.00
2022-11-20T21:20:17.380Z,0.00
2022-11-20T21:25:24.192Z,0.00
2022-11-20T21:30:29.439Z,0.00
2022-11-20T21:35:18.484Z,0.00
2022-11-20T21:40:24.735Z,0.00
2022-11-20T21:45:30.639Z,0.00
2022-11-20T21:50:19.672Z,0.00
2022-11-20T21:55:25.722Z,0.00
2022-11-20T22:00:31.964Z,0.00
2022-11-20T22:05:20.099Z,0.00
2022-11-20T22:10:25.895Z,0.00
2022-11-20T22:15:53.658Z,0.00
2022-11-20T22:20:21.105Z,0.00
2022-11-20T22:25:27.127Z,0.00
2022-11-20T22:30:16.134Z,0.00
2022-11-20T22:35:22.148Z,0.00
2022-11-20T22:40:28.315Z,0.00
2022-11-20T22:45:17.273Z,0.00
2022-11-20T22:50:23.333Z,0.00
2022-11-20T22:55:29.407Z,0.00
2022-11-20T23:00:18.640Z,0.00
2022-11-20T23:05:24.893Z,0.00
2022-11-20T23:10:30.657Z,0.00
2022-11-20T23:15:19.730Z,0.00
2022-11-20T23:20:25.866Z,0.00
2022-11-20T23:25:31.862Z,0.00
2022-11-20T23:30:20.855Z,0.00
2022-11-20T23:35:26.857Z,0.00
2022-11-20T23:40:37.441Z,0.00
2022-11-20T23:45:22.069Z,0.00
2022-11-20T23:50:28.414Z,0.00
2022-11-20T23:55:17.506Z,0.00
